Terminal Aerodrome Forecast
Issued by NWS

Home | Current Version | Previous Version | Text Only | Print | Product List | Glossary On
Versions: 1 2 3 4 5 6 7 8 9 10 11 12 13 14 15 16 17 18 19 20 21 22 23
265
FTUS44 KOUN 030531
TAFHBR
TAF
KHBR 030531Z 0306/0406 VRB04KT P6SM SKC
     FM031700 24010KT P6SM SCT150 PROB30 0319/0323 4SM -TSRA
      BKN040CB
     FM032300 29011KT P6SM SCT150=

USA.gov is the U.S. government's official web portal to all federal, state and local government web resources and services.